createdAt,value
2022-08-25T00:00:23.436Z,20.98
2022-08-25T00:02:56.183Z,20.86
2022-08-25T00:05:33.349Z,20.78
2022-08-25T00:08:04.373Z,20.81
2022-08-25T00:10:38.147Z,20.77
2022-08-25T00:13:08.088Z,20.75
2022-08-25T00:15:39.091Z,20.67
2022-08-25T00:18:19.531Z,20.66
2022-08-25T00:20:49.307Z,20.65
2022-08-25T00:23:18.284Z,20.67
2022-08-25T00:25:47.609Z,20.72
2022-08-25T00:28:16.846Z,20.83
2022-08-25T00:30:45.852Z,20.90
2022-08-25T00:33:14.726Z,21.00
2022-08-25T00:35:44.011Z,21.07
2022-08-25T00:38:12.714Z,21.09
2022-08-25T00:40:41.631Z,21.14
2022-08-25T00:43:09.812Z,21.16
2022-08-25T00:45:41.045Z,21.15
2022-08-25T00:48:09.296Z,21.11
2022-08-25T00:50:37.470Z,21.08
2022-08-25T00:53:07.330Z,20.94
2022-08-25T00:55:39.393Z,20.93
2022-08-25T00:58:17.714Z,20.95
2022-08-25T01:00:50.099Z,20.97
2022-08-25T01:03:20.119Z,21.01
2022-08-25T01:05:49.239Z,21.05
2022-08-25T01:08:21.071Z,21.05
2022-08-25T01:10:50.796Z,21.05
2022-08-25T01:13:22.231Z,20.84
2022-08-25T01:15:54.801Z,20.66
2022-08-25T01:18:24.887Z,20.61
2022-08-25T01:20:55.064Z,20.56
2022-08-25T01:23:24.699Z,20.49
2022-08-25T01:25:52.843Z,20.55
2022-08-25T01:28:21.763Z,20.60
2022-08-25T01:30:50.671Z,20.58
2022-08-25T01:33:19.029Z,20.66
2022-08-25T01:35:48.148Z,20.70
2022-08-25T01:38:17.324Z,20.69
2022-08-25T01:40:45.675Z,20.67
2022-08-25T01:43:13.788Z,20.44
2022-08-25T01:45:46.292Z,20.49
2022-08-25T01:48:15.783Z,20.53
2022-08-25T01:50:44.295Z,20.56
2022-08-25T01:53:27.703Z,20.62
2022-08-25T01:56:06.181Z,20.69
2022-08-25T01:58:41.772Z,20.81
2022-08-25T02:01:18.778Z,20.79
2022-08-25T02:03:49.925Z,20.72
2022-08-25T02:06:28.760Z,20.72
2022-08-25T02:09:02.175Z,20.69
2022-08-25T02:11:30.680Z,20.62
2022-08-25T02:13:59.931Z,20.58
2022-08-25T02:16:32.233Z,20.52
2022-08-25T02:19:01.311Z,20.55
2022-08-25T02:21:30.235Z,20.57
2022-08-25T02:23:59.437Z,20.65
2022-08-25T02:26:29.804Z,20.64
2022-08-25T02:28:58.515Z,20.57
2022-08-25T02:31:27.391Z,20.60
2022-08-25T02:33:57.170Z,20.59
2022-08-25T02:36:25.501Z,20.62
2022-08-25T02:38:53.725Z,20.64
2022-08-25T02:41:25.172Z,20.63
2022-08-25T02:44:01.280Z,20.41
2022-08-25T02:46:31.102Z,20.32
2022-08-25T02:48:59.910Z,20.37
2022-08-25T02:51:30.104Z,20.34
2022-08-25T02:54:03.174Z,20.42
2022-08-25T02:56:33.008Z,20.34
2022-08-25T02:59:02.885Z,20.32
2022-08-25T03:01:32.803Z,20.33
2022-08-25T03:04:03.807Z,20.21
2022-08-25T03:06:35.050Z,20.04
2022-08-25T03:09:03.636Z,19.96
2022-08-25T03:11:32.602Z,19.90
2022-08-25T03:14:00.762Z,19.90
2022-08-25T03:16:29.049Z,19.91
2022-08-25T03:18:58.156Z,19.97
2022-08-25T03:21:27.647Z,20.04
2022-08-25T03:23:56.539Z,20.07
2022-08-25T03:26:43.123Z,20.07
2022-08-25T03:29:13.963Z,20.16
2022-08-25T03:31:45.360Z,20.19
2022-08-25T03:34:18.464Z,20.21
2022-08-25T03:36:50.965Z,20.20
2022-08-25T03:39:20.736Z,20.23
2022-08-25T03:41:49.576Z,20.23
2022-08-25T03:44:19.115Z,20.30
2022-08-25T03:46:51.427Z,20.39
2022-08-25T03:49:23.843Z,20.35
2022-08-25T03:51:54.819Z,20.34
2022-08-25T03:54:25.640Z,20.33
2022-08-25T03:56:54.136Z,20.29
2022-08-25T03:59:22.418Z,20.23
2022-08-25T04:01:55.211Z,20.09
2022-08-25T04:04:24.308Z,20.01
2022-08-25T04:06:53.092Z,19.92
2022-08-25T04:09:21.748Z,19.89
2022-08-25T04:11:53.296Z,19.89
2022-08-25T04:14:23.528Z,19.90
2022-08-25T04:16:54.843Z,19.95
2022-08-25T04:19:23.161Z,19.89
2022-08-25T04:21:51.774Z,19.87
2022-08-25T04:24:25.126Z,19.83
2022-08-25T04:26:53.759Z,19.66
2022-08-25T04:29:25.333Z,19.58
2022-08-25T04:31:54.968Z,19.57
2022-08-25T04:34:30.130Z,19.60
2022-08-25T04:37:03.381Z,19.63
2022-08-25T04:39:31.788Z,19.73
2022-08-25T04:42:01.202Z,19.74
2022-08-25T04:44:30.836Z,19.80
2022-08-25T04:47:02.121Z,19.89
2022-08-25T04:49:30.373Z,20.01
2022-08-25T04:51:58.700Z,20.05
2022-08-25T04:54:28.171Z,20.14
2022-08-25T04:56:58.749Z,20.18
2022-08-25T04:59:30.241Z,20.24
2022-08-25T05:02:03.098Z,20.29
2022-08-25T05:04:33.468Z,20.38
2022-08-25T05:07:02.566Z,20.50
2022-08-25T05:09:32.918Z,20.58
2022-08-25T05:12:03.118Z,20.60
2022-08-25T05:14:32.991Z,20.64
2022-08-25T05:17:02.110Z,20.59
2022-08-25T05:19:30.380Z,20.52
2022-08-25T05:21:58.548Z,20.53
2022-08-25T05:24:28.132Z,20.61
2022-08-25T05:26:56.986Z,20.74
2022-08-25T05:29:25.468Z,20.85
2022-08-25T05:31:54.068Z,20.97
2022-08-25T05:34:22.328Z,21.14
2022-08-25T05:36:51.452Z,21.33
2022-08-25T05:39:19.768Z,21.51
2022-08-25T05:41:48.030Z,21.58
2022-08-25T05:44:20.844Z,21.75
2022-08-25T05:46:49.665Z,21.85
2022-08-25T05:49:17.998Z,21.87
2022-08-25T05:51:46.215Z,21.94
2022-08-25T05:54:14.439Z,22.04
2022-08-25T05:56:42.608Z,22.02
2022-08-25T05:59:11.707Z,22.10
2022-08-25T06:01:58.612Z,22.13
2022-08-25T06:04:27.203Z,22.28
2022-08-25T06:06:58.447Z,22.48
2022-08-25T06:09:29.460Z,22.59
2022-08-25T06:11:57.798Z,22.72
2022-08-25T06:14:26.034Z,22.95
2022-08-25T06:16:54.308Z,23.03
2022-08-25T06:19:23.642Z,23.15
2022-08-25T06:21:57.966Z,23.39
2022-08-25T06:24:27.854Z,23.87
2022-08-25T06:26:57.001Z,25.54
2022-08-25T06:29:26.240Z,29.10
2022-08-25T06:31:54.442Z,31.14
2022-08-25T06:34:24.306Z,32.74
2022-08-25T06:36:55.624Z,31.35
2022-08-25T06:39:24.419Z,30.48
2022-08-25T06:41:56.738Z,29.57
2022-08-25T06:44:30.482Z,28.92
2022-08-25T06:46:58.749Z,28.33
2022-08-25T06:49:35.528Z,28.25
2022-08-25T06:52:04.981Z,28.15
2022-08-25T06:54:33.184Z,27.93
2022-08-25T06:57:01.488Z,28.00
2022-08-25T06:59:32.191Z,28.14
2022-08-25T07:02:03.261Z,29.66
2022-08-25T07:04:33.136Z,31.24
2022-08-25T07:07:01.962Z,31.50
2022-08-25T07:09:30.231Z,31.49
2022-08-25T07:11:58.826Z,32.79
2022-08-25T07:14:29.324Z,34.43
2022-08-25T07:16:58.056Z,35.16
2022-08-25T07:19:27.494Z,34.43
2022-08-25T07:21:55.636Z,33.24
2022-08-25T07:24:24.612Z,32.86
2022-08-25T07:26:53.194Z,32.72
2022-08-25T07:29:31.832Z,33.22
2022-08-25T07:32:02.820Z,33.56
2022-08-25T07:34:52.535Z,33.23
2022-08-25T07:37:48.802Z,32.84
2022-08-25T07:40:17.603Z,32.64
2022-08-25T07:42:46.671Z,32.25
2022-08-25T07:45:20.491Z,32.22
2022-08-25T07:47:51.663Z,32.28
2022-08-25T07:50:21.320Z,32.76
2022-08-25T07:52:55.139Z,33.87
2022-08-25T07:55:25.441Z,35.79
2022-08-25T07:57:57.131Z,36.79
2022-08-25T08:00:30.911Z,37.41
2022-08-25T08:03:00.558Z,38.14
2022-08-25T08:05:32.509Z,38.34
2022-08-25T08:08:01.137Z,38.44
2022-08-25T08:10:54.195Z,37.99
2022-08-25T08:13:20.039Z,37.51
2022-08-25T08:15:55.628Z,37.12
2022-08-25T08:18:24.507Z,36.82
2022-08-25T08:20:53.189Z,37.19
2022-08-25T08:23:27.824Z,37.43
2022-08-25T08:25:56.527Z,37.21
2022-08-25T08:28:27.877Z,36.33
2022-08-25T08:30:56.231Z,35.23
2022-08-25T08:33:25.339Z,34.49
2022-08-25T08:36:08.399Z,33.82
2022-08-25T08:38:40.461Z,33.37
2022-08-25T08:42:11.933Z,32.56
2022-08-25T08:44:46.660Z,32.41
2022-08-25T08:47:33.711Z,32.50
2022-08-25T08:50:37.836Z,32.68
2022-08-25T08:53:11.036Z,32.31
2022-08-25T08:55:52.957Z,32.48
2022-08-25T08:58:35.393Z,32.58
2022-08-25T09:01:05.006Z,32.67
2022-08-25T09:03:44.347Z,32.93
2022-08-25T09:06:22.500Z,33.08
2022-08-25T09:08:52.665Z,33.15
2022-08-25T09:11:51.471Z,32.97
2022-08-25T09:15:14.104Z,33.09
2022-08-25T09:17:54.649Z,33.24
2022-08-25T09:20:48.578Z,33.40
2022-08-25T09:23:34.915Z,32.94
2022-08-25T09:26:27.699Z,33.01
2022-08-25T09:29:28.674Z,32.88
2022-08-25T09:32:00.382Z,32.87
2022-08-25T09:34:33.582Z,32.87
2022-08-25T09:37:03.017Z,32.82
2022-08-25T09:39:31.227Z,32.75
2022-08-25T09:42:03.637Z,32.83
2022-08-25T09:44:38.995Z,32.83
2022-08-25T09:47:24.568Z,32.69
2022-08-25T09:50:04.534Z,32.52
2022-08-25T09:52:38.580Z,32.76
2022-08-25T09:55:13.646Z,32.88
2022-08-25T09:57:52.878Z,32.69
2022-08-25T10:00:34.351Z,32.68
2022-08-25T10:03:22.677Z,32.95
2022-08-25T10:05:58.979Z,32.98
2022-08-25T10:08:39.405Z,32.93
2022-08-25T10:11:15.139Z,32.87
2022-08-25T10:13:47.013Z,32.91
2022-08-25T10:16:30.821Z,33.14
2022-08-25T10:19:26.498Z,32.92
2022-08-25T10:22:08.324Z,32.84
2022-08-25T10:24:44.155Z,32.92
2022-08-25T10:27:35.946Z,32.71
2022-08-25T10:30:40.514Z,32.45
2022-08-25T10:33:08.871Z,32.59
2022-08-25T10:35:55.481Z,32.41
2022-08-25T10:38:36.020Z,32.39
2022-08-25T10:41:41.807Z,32.23
2022-08-25T10:44:53.068Z,32.39
2022-08-25T10:47:37.341Z,32.46
2022-08-25T10:50:29.484Z,32.78
2022-08-25T10:53:28.083Z,32.96
2022-08-25T10:56:07.093Z,32.73
2022-08-25T10:58:59.822Z,32.89
2022-08-25T11:01:45.256Z,32.84
2022-08-25T11:04:29.813Z,33.13
2022-08-25T11:07:09.293Z,33.18
2022-08-25T11:09:41.761Z,33.52
2022-08-25T11:12:16.338Z,33.27
2022-08-25T11:14:57.158Z,33.27
2022-08-25T11:17:27.394Z,33.37
2022-08-25T11:20:07.532Z,33.58
2022-08-25T11:22:53.646Z,33.49
2022-08-25T11:25:35.031Z,33.40
2022-08-25T11:28:22.349Z,33.55
2022-08-25T11:30:52.908Z,33.82
2022-08-25T11:33:24.326Z,34.17
2022-08-25T11:36:13.772Z,34.32
2022-08-25T11:39:28.944Z,34.34
2022-08-25T11:42:26.119Z,34.10
2022-08-25T11:45:16.254Z,34.16
2022-08-25T11:47:53.992Z,34.52
2022-08-25T11:50:54.301Z,34.57
2022-08-25T11:53:30.308Z,34.79
2022-08-25T11:56:04.286Z,34.57
2022-08-25T11:58:50.013Z,34.33
2022-08-25T12:01:40.352Z,34.40
2022-08-25T12:04:42.263Z,34.11
2022-08-25T12:07:20.007Z,33.88
2022-08-25T12:09:53.885Z,33.76
2022-08-25T12:12:35.973Z,34.53
2022-08-25T12:15:26.135Z,34.80
2022-08-25T12:18:18.762Z,34.88
2022-08-25T12:20:58.690Z,35.26
2022-08-25T12:23:56.637Z,35.25
2022-08-25T12:26:46.206Z,35.17
2022-08-25T12:29:33.734Z,35.63
2022-08-25T12:32:46.993Z,35.92
2022-08-25T12:35:42.912Z,36.17
2022-08-25T12:38:15.742Z,36.49
2022-08-25T12:40:45.444Z,36.21
2022-08-25T12:43:14.228Z,35.99
2022-08-25T12:45:51.806Z,35.60
2022-08-25T12:48:27.292Z,35.86
2022-08-25T12:51:19.582Z,35.90
2022-08-25T12:53:57.305Z,36.07
2022-08-25T12:56:37.555Z,35.98
2022-08-25T12:59:23.880Z,36.39
2022-08-25T13:02:03.047Z,35.91
2022-08-25T13:05:20.890Z,35.63
2022-08-25T13:08:02.345Z,36.53
2022-08-25T13:10:48.302Z,36.55
2022-08-25T13:13:37.719Z,36.69
2022-08-25T13:16:18.533Z,36.88
2022-08-25T13:18:51.436Z,36.94
2022-08-25T13:21:24.433Z,36.73
2022-08-25T13:24:01.369Z,36.75
2022-08-25T13:26:48.450Z,36.66
2022-08-25T13:29:23.034Z,36.46
2022-08-25T13:32:09.198Z,36.69
2022-08-25T13:34:42.725Z,36.56
2022-08-25T13:37:29.782Z,36.35
2022-08-25T13:40:10.233Z,36.46
2022-08-25T13:42:42.541Z,36.94
2022-08-25T13:45:22.052Z,36.89
2022-08-25T13:48:20.795Z,36.97
2022-08-25T13:50:43.543Z,36.76
2022-08-25T13:53:25.901Z,37.14
2022-08-25T13:56:02.182Z,36.79
2022-08-25T13:58:45.242Z,36.37
2022-08-25T14:01:48.266Z,35.66
2022-08-25T14:04:26.512Z,34.86
2022-08-25T14:07:20.290Z,34.38
2022-08-25T14:09:56.423Z,34.11
2022-08-25T14:12:37.751Z,34.38
2022-08-25T14:15:12.110Z,34.45
2022-08-25T14:17:43.842Z,34.42
2022-08-25T14:20:33.421Z,34.01
2022-08-25T14:23:05.592Z,34.17
2022-08-25T14:25:40.565Z,33.82
2022-08-25T14:28:14.583Z,33.61
2022-08-25T14:30:47.182Z,33.57
2022-08-25T14:33:17.818Z,33.34
2022-08-25T14:35:51.547Z,33.33
2022-08-25T14:38:22.374Z,33.07
2022-08-25T14:40:51.566Z,32.87
2022-08-25T14:43:20.873Z,32.82
2022-08-25T14:45:52.704Z,32.83
2022-08-25T14:48:28.964Z,32.75
2022-08-25T14:50:59.726Z,32.53
2022-08-25T14:53:28.819Z,32.46
2022-08-25T14:55:59.062Z,32.30
2022-08-25T14:58:33.968Z,31.97
2022-08-25T15:01:03.426Z,32.05
2022-08-25T15:03:43.180Z,31.88
2022-08-25T15:06:17.328Z,31.90
2022-08-25T15:09:04.070Z,31.95
2022-08-25T15:11:33.168Z,31.82
2022-08-25T15:14:03.651Z,31.71
2022-08-25T15:16:39.445Z,31.63
2022-08-25T15:19:10.545Z,31.69
2022-08-25T15:21:39.522Z,31.75
2022-08-25T15:24:10.206Z,31.62
2022-08-25T15:27:00.234Z,31.56
2022-08-25T15:29:31.395Z,31.42
2022-08-25T15:32:01.703Z,31.50
2022-08-25T15:34:33.360Z,31.51
2022-08-25T15:37:09.998Z,31.44
2022-08-25T15:39:41.132Z,31.39
2022-08-25T15:42:12.182Z,31.28
2022-08-25T15:44:42.384Z,31.20
2022-08-25T15:47:23.080Z,31.08
2022-08-25T15:50:01.559Z,31.02
2022-08-25T15:52:39.408Z,30.96
2022-08-25T15:55:15.098Z,31.05
2022-08-25T15:57:46.124Z,30.94
2022-08-25T16:00:16.759Z,30.90
2022-08-25T16:02:46.494Z,30.94
2022-08-25T16:05:16.510Z,30.81
2022-08-25T16:07:51.551Z,30.70
2022-08-25T16:10:20.635Z,30.67
2022-08-25T16:12:51.953Z,30.71
2022-08-25T16:15:23.882Z,30.74
2022-08-25T16:17:58.584Z,30.72
2022-08-25T16:20:30.430Z,30.71
2022-08-25T16:23:02.644Z,30.54
2022-08-25T16:25:32.385Z,30.45
2022-08-25T16:28:00.689Z,30.36
2022-08-25T16:30:28.865Z,30.33
2022-08-25T16:32:57.083Z,30.23
2022-08-25T16:35:25.262Z,30.25
2022-08-25T16:37:53.603Z,30.32
2022-08-25T16:40:24.827Z,30.33
2022-08-25T16:42:55.078Z,30.32
2022-08-25T16:45:24.480Z,30.22
2022-08-25T16:47:55.747Z,30.06
2022-08-25T16:50:24.212Z,30.17
2022-08-25T16:53:11.039Z,30.17
2022-08-25T16:55:39.876Z,30.08
2022-08-25T16:58:13.336Z,29.97
2022-08-25T17:00:44.791Z,29.90
2022-08-25T17:03:16.168Z,29.83
2022-08-25T17:05:45.315Z,29.80
2022-08-25T17:08:29.026Z,29.69
2022-08-25T17:11:06.244Z,29.61
2022-08-25T17:13:37.483Z,29.52
2022-08-25T17:16:06.444Z,29.52
2022-08-25T17:18:35.086Z,29.50
2022-08-25T17:21:24.347Z,29.51
2022-08-25T17:23:57.860Z,29.46
2022-08-25T17:26:29.033Z,29.39
2022-08-25T17:28:59.280Z,29.40
2022-08-25T17:31:28.764Z,29.32
2022-08-25T17:33:59.433Z,29.19
2022-08-25T17:36:27.880Z,29.06
2022-08-25T17:38:57.138Z,28.98
2022-08-25T17:41:25.987Z,28.86
2022-08-25T17:43:54.199Z,28.74
2022-08-25T17:46:22.682Z,28.62
2022-08-25T17:48:51.579Z,28.47
2022-08-25T17:51:20.443Z,28.36
2022-08-25T17:53:50.478Z,28.27
2022-08-25T17:56:27.219Z,28.14
2022-08-25T17:58:57.070Z,28.03
2022-08-25T18:01:29.365Z,27.91
2022-08-25T18:03:59.245Z,27.77
2022-08-25T18:06:29.618Z,27.68
2022-08-25T18:09:01.417Z,27.61
2022-08-25T18:11:30.094Z,27.56
2022-08-25T18:13:59.238Z,27.48
2022-08-25T18:16:28.446Z,27.45
2022-08-25T18:18:57.196Z,27.43
2022-08-25T18:21:25.577Z,27.30
2022-08-25T18:23:59.144Z,27.17
2022-08-25T18:26:28.076Z,27.09
2022-08-25T18:28:56.312Z,26.99
2022-08-25T18:31:25.279Z,26.86
2022-08-25T18:33:53.616Z,26.74
2022-08-25T18:36:25.091Z,26.64
2022-08-25T18:39:13.651Z,26.56
2022-08-25T18:41:42.813Z,26.43
2022-08-25T18:44:15.569Z,26.37
2022-08-25T18:46:45.418Z,26.34
2022-08-25T18:49:17.569Z,26.32
2022-08-25T18:51:48.183Z,26.29
2022-08-25T18:54:22.784Z,26.23
2022-08-25T18:56:53.939Z,26.20
2022-08-25T18:59:23.620Z,26.13
2022-08-25T19:01:54.380Z,26.07
2022-08-25T19:04:31.522Z,26.01
2022-08-25T19:07:01.874Z,25.92
2022-08-25T19:09:32.452Z,25.82
2022-08-25T19:12:01.174Z,25.76
2022-08-25T19:14:29.633Z,25.71
2022-08-25T19:16:58.702Z,25.62
2022-08-25T19:19:31.345Z,25.54
2022-08-25T19:22:02.976Z,25.47
2022-08-25T19:24:32.227Z,25.40
2022-08-25T19:27:02.456Z,25.35
2022-08-25T19:29:31.548Z,25.35
2022-08-25T19:32:01.789Z,25.31
2022-08-25T19:34:35.270Z,25.29
2022-08-25T19:37:05.554Z,25.24
2022-08-25T19:39:35.663Z,25.21
2022-08-25T19:42:08.463Z,25.16
2022-08-25T19:44:56.690Z,25.13
2022-08-25T19:47:25.989Z,25.09
2022-08-25T19:49:55.259Z,25.06
2022-08-25T19:52:24.964Z,25.06
2022-08-25T19:54:55.029Z,25.02
2022-08-25T19:57:28.479Z,25.01
2022-08-25T20:00:24.875Z,24.99
2022-08-25T20:02:53.121Z,24.95
2022-08-25T20:05:24.191Z,24.94
2022-08-25T20:07:54.013Z,24.92
2022-08-25T20:10:24.318Z,24.92
2022-08-25T20:12:55.577Z,24.94
2022-08-25T20:15:24.277Z,24.92
2022-08-25T20:17:56.464Z,24.88
2022-08-25T20:20:25.683Z,24.87
2022-08-25T20:23:19.450Z,24.90
2022-08-25T20:25:47.854Z,24.92
2022-08-25T20:28:18.867Z,24.91
2022-08-25T20:30:47.682Z,24.87
2022-08-25T20:33:22.600Z,24.87
2022-08-25T20:35:52.938Z,24.83
2022-08-25T20:38:21.379Z,24.84
2022-08-25T20:40:49.600Z,24.81
2022-08-25T20:43:17.912Z,24.80
2022-08-25T20:45:49.179Z,24.79
2022-08-25T20:48:18.033Z,24.77
2022-08-25T20:50:46.444Z,24.74
2022-08-25T20:53:27.049Z,24.70
2022-08-25T20:55:55.322Z,24.66
2022-08-25T20:58:23.628Z,24.63
2022-08-25T21:00:54.593Z,24.61
2022-08-25T21:03:22.803Z,24.61
2022-08-25T21:05:54.038Z,24.57
2022-08-25T21:08:23.610Z,24.52
2022-08-25T21:10:52.001Z,24.49
2022-08-25T21:13:20.210Z,24.46
2022-08-25T21:15:51.001Z,24.43
2022-08-25T21:18:19.200Z,24.43
2022-08-25T21:20:47.410Z,24.36
2022-08-25T21:23:15.575Z,24.31
2022-08-25T21:25:43.870Z,24.31
2022-08-25T21:28:13.233Z,24.34
2022-08-25T21:30:44.715Z,24.33
2022-08-25T21:33:15.534Z,24.31
2022-08-25T21:35:44.218Z,24.25
2022-08-25T21:38:15.190Z,24.16
2022-08-25T21:40:45.016Z,24.22
2022-08-25T21:43:13.485Z,24.31
2022-08-25T21:45:46.589Z,24.28
2022-08-25T21:48:15.344Z,24.14
2022-08-25T21:50:43.651Z,23.92
2022-08-25T21:53:12.073Z,23.80
2022-08-25T21:55:42.007Z,23.70
2022-08-25T21:58:10.337Z,23.65
2022-08-25T22:00:38.604Z,23.65
2022-08-25T22:03:10.937Z,23.70
2022-08-25T22:05:43.278Z,23.72
2022-08-25T22:08:14.050Z,23.73
2022-08-25T22:10:45.572Z,23.74
2022-08-25T22:13:13.791Z,23.78
2022-08-25T22:15:41.980Z,23.78
2022-08-25T22:18:10.161Z,23.79
2022-08-25T22:20:39.245Z,23.79
2022-08-25T22:23:09.711Z,23.82
2022-08-25T22:25:48.528Z,23.84
2022-08-25T22:28:17.015Z,23.78
2022-08-25T22:30:45.254Z,23.72
2022-08-25T22:33:13.664Z,23.70
2022-08-25T22:35:41.941Z,23.71
2022-08-25T22:38:12.407Z,23.65
2022-08-25T22:40:41.715Z,23.62
2022-08-25T22:43:10.892Z,23.63
2022-08-25T22:45:39.593Z,23.65
2022-08-25T22:48:08.287Z,23.66
2022-08-25T22:50:37.547Z,23.72
2022-08-25T22:53:05.874Z,23.72
2022-08-25T22:55:34.237Z,23.77
2022-08-25T22:58:02.389Z,23.77
2022-08-25T23:00:31.635Z,23.77
2022-08-25T23:02:59.916Z,23.82
2022-08-25T23:05:29.387Z,23.91
2022-08-25T23:07:57.686Z,23.95
2022-08-25T23:10:26.409Z,23.82
2022-08-25T23:12:55.165Z,23.63
2022-08-25T23:15:23.515Z,23.47
2022-08-25T23:17:52.003Z,23.45
2022-08-25T23:20:44.809Z,23.42
2022-08-25T23:23:14.084Z,23.45
2022-08-25T23:25:42.353Z,23.46
2022-08-25T23:28:10.866Z,23.46
2022-08-25T23:30:40.244Z,23.45
2022-08-25T23:33:15.447Z,23.34
2022-08-25T23:35:47.455Z,23.15
2022-08-25T23:38:15.787Z,22.99
2022-08-25T23:40:44.681Z,22.93
2022-08-25T23:43:13.474Z,22.91
2022-08-25T23:45:41.786Z,22.90
2022-08-25T23:48:10.553Z,22.91
2022-08-25T23:50:49.088Z,22.94
2022-08-25T23:53:22.516Z,23.02
2022-08-25T23:55:54.769Z,23.12
2022-08-25T23:58:24.155Z,23.08
